createdAt,value
2018-09-12T00:01:48.771Z,13.23
2018-09-12T00:04:17.570Z,12.33
2018-09-12T00:06:46.333Z,13.30
2018-09-12T00:09:15.137Z,14.57
2018-09-12T00:11:43.915Z,13.20
2018-09-12T00:14:12.715Z,14.00
2018-09-12T00:16:41.518Z,13.67
2018-09-12T00:19:10.307Z,12.73
2018-09-12T00:21:39.079Z,13.20
2018-09-12T00:24:07.960Z,14.57
2018-09-12T00:26:36.757Z,14.67
2018-09-12T00:29:05.669Z,13.90
2018-09-12T00:31:34.495Z,13.57
2018-09-12T00:34:03.242Z,14.40
2018-09-12T00:36:32.038Z,13.30
2018-09-12T00:39:00.818Z,15.07
2018-09-12T00:41:31.275Z,13.23
2018-09-12T00:44:00.100Z,14.07
2018-09-12T00:46:28.859Z,13.83
2018-09-12T00:48:57.699Z,13.70
2018-09-12T00:51:26.541Z,15.30
2018-09-12T00:53:55.278Z,15.70
2018-09-12T00:56:24.103Z,13.00
2018-09-12T00:58:52.962Z,12.53
2018-09-12T01:01:21.750Z,14.33
2018-09-12T01:03:50.888Z,14.67
2018-09-12T01:06:19.632Z,13.40
2018-09-12T01:08:48.371Z,12.90
2018-09-12T01:11:17.153Z,13.47
2018-09-12T01:13:45.972Z,12.63
2018-09-12T01:16:14.797Z,13.87
2018-09-12T01:18:43.654Z,11.67
2018-09-12T01:21:12.416Z,13.40
2018-09-12T01:23:41.173Z,13.73
2018-09-12T01:26:09.932Z,13.50
2018-09-12T01:28:38.728Z,14.33
2018-09-12T01:31:07.576Z,14.43
2018-09-12T01:33:36.319Z,11.40
2018-09-12T01:36:05.455Z,14.87
2018-09-12T01:38:34.217Z,13.90
2018-09-12T01:41:03.425Z,14.50
2018-09-12T01:43:32.375Z,14.20
2018-09-12T01:46:01.162Z,15.80
2018-09-12T01:48:29.944Z,14.23
2018-09-12T01:50:58.764Z,15.57
2018-09-12T01:53:27.531Z,14.57
2018-09-12T01:55:56.306Z,13.80
2018-09-12T01:58:25.139Z,15.17
2018-09-12T02:00:53.909Z,14.20
2018-09-12T02:03:22.720Z,14.10
2018-09-12T02:05:51.548Z,15.67
2018-09-12T02:08:20.341Z,15.27
2018-09-12T02:10:49.142Z,15.83
2018-09-12T02:13:17.933Z,15.27
2018-09-12T02:15:46.713Z,17.10
2018-09-12T02:18:15.513Z,17.20
2018-09-12T02:20:44.523Z,17.10
2018-09-12T02:23:13.323Z,17.13
2018-09-12T02:25:42.097Z,19.10
2018-09-12T02:28:10.889Z,19.77
2018-09-12T02:30:39.682Z,18.00
2018-09-12T02:33:08.506Z,20.70
2018-09-12T02:35:41.533Z,18.87
2018-09-12T02:38:10.312Z,19.00
2018-09-12T02:40:39.059Z,18.90
2018-09-12T02:43:07.821Z,19.07
2018-09-12T02:45:36.592Z,19.77
2018-09-12T02:48:06.057Z,18.60
2018-09-12T02:50:34.846Z,19.17
2018-09-12T02:53:03.745Z,19.07
2018-09-12T02:55:32.491Z,19.40
2018-09-12T02:58:01.270Z,19.67
2018-09-12T03:00:30.062Z,19.83
2018-09-12T03:02:58.877Z,20.70
2018-09-12T03:05:27.698Z,20.47
2018-09-12T03:07:56.678Z,19.77
2018-09-12T03:10:25.357Z,19.87
2018-09-12T03:12:54.096Z,21.00
2018-09-12T03:15:22.888Z,19.70
2018-09-12T03:17:51.674Z,19.13
2018-09-12T03:20:20.454Z,19.80
2018-09-12T03:22:49.233Z,20.33
2018-09-12T03:25:18.106Z,19.80
2018-09-12T03:27:46.842Z,20.43
2018-09-12T03:30:15.644Z,19.40
2018-09-12T03:32:44.489Z,21.60
2018-09-12T03:35:13.278Z,21.07
2018-09-12T03:37:42.093Z,21.07
2018-09-12T03:40:10.851Z,21.00
2018-09-12T03:42:39.592Z,20.53
2018-09-12T03:45:08.416Z,20.67
2018-09-12T03:47:37.201Z,20.83
2018-09-12T03:50:06.293Z,9.37
2018-09-12T03:52:35.125Z,3.90
2018-09-12T03:55:03.962Z,3.13
2018-09-12T03:57:32.771Z,3.30
2018-09-12T04:00:01.619Z,3.00
2018-09-12T04:02:30.406Z,3.30
2018-09-12T04:04:59.195Z,2.57
2018-09-12T04:07:29.936Z,2.87
2018-09-12T04:10:00.722Z,2.20
2018-09-12T04:12:29.887Z,2.07
2018-09-12T04:14:58.639Z,2.30
2018-09-12T04:17:33.088Z,2.57
2018-09-12T04:20:02.007Z,3.53
2018-09-12T04:22:31.247Z,4.30
2018-09-12T04:25:01.760Z,4.43
2018-09-12T04:27:30.606Z,5.30
2018-09-12T04:29:59.753Z,5.43
2018-09-12T04:32:28.533Z,5.73
2018-09-12T04:34:57.342Z,6.10
2018-09-12T04:37:26.112Z,6.70
2018-09-12T04:39:54.905Z,6.47
2018-09-12T04:42:23.709Z,6.53
2018-09-12T04:44:52.753Z,6.37
2018-09-12T04:47:21.517Z,7.17
2018-09-12T04:49:50.295Z,7.67
2018-09-12T04:52:19.100Z,6.07
2018-09-12T04:54:47.930Z,6.30
2018-09-12T04:57:16.759Z,7.07
2018-09-12T04:59:45.570Z,6.30
2018-09-12T05:02:14.317Z,6.43
2018-09-12T05:04:43.074Z,6.20
2018-09-12T05:07:11.832Z,5.97
2018-09-12T05:09:40.576Z,6.20
2018-09-12T05:12:09.382Z,6.03
2018-09-12T05:14:38.140Z,5.17
2018-09-12T05:17:06.961Z,5.43
2018-09-12T05:19:35.838Z,5.63
2018-09-12T05:22:04.672Z,5.40
2018-09-12T05:24:33.418Z,5.10
2018-09-12T05:27:02.174Z,5.77
2018-09-12T05:29:31.081Z,5.60
2018-09-12T05:31:59.869Z,5.27
2018-09-12T05:34:28.672Z,4.10
2018-09-12T05:36:57.425Z,4.43
2018-09-12T05:39:26.157Z,3.87
2018-09-12T05:41:55.077Z,4.07
2018-09-12T05:44:23.861Z,4.83
2018-09-12T05:46:52.700Z,7.80
2018-09-12T05:49:21.522Z,11.23
2018-09-12T05:51:50.322Z,11.90
2018-09-12T05:54:19.080Z,10.80
2018-09-12T05:56:47.964Z,11.40
2018-09-12T05:59:16.761Z,12.23
2018-09-12T06:01:45.628Z,10.80
2018-09-12T06:04:14.431Z,8.20
2018-09-12T06:06:43.187Z,7.80
2018-09-12T06:09:12.025Z,8.47
2018-09-12T06:11:40.860Z,11.80
2018-09-12T06:14:09.711Z,18.93
2018-09-12T06:16:38.473Z,19.30
2018-09-12T06:19:07.550Z,18.67
2018-09-12T06:21:36.674Z,18.83
2018-09-12T06:24:05.495Z,19.07
2018-09-12T06:26:34.347Z,17.13
2018-09-12T06:29:03.136Z,15.40
2018-09-12T06:31:31.876Z,16.30
2018-09-12T06:34:00.654Z,16.63
2018-09-12T06:36:29.442Z,16.20
2018-09-12T06:38:58.298Z,15.77
2018-09-12T06:41:27.147Z,19.17
2018-09-12T06:43:56.414Z,19.50
2018-09-12T06:46:25.184Z,19.27
2018-09-12T06:48:53.985Z,14.47
2018-09-12T06:51:22.768Z,13.30
2018-09-12T06:53:51.556Z,9.80
2018-09-12T06:56:20.373Z,13.17
2018-09-12T06:58:49.190Z,10.40
2018-09-12T07:01:17.953Z,9.90
2018-09-12T07:03:47.538Z,10.83
2018-09-12T07:06:16.317Z,9.73
2018-09-12T07:08:45.227Z,9.70
2018-09-12T07:11:14.101Z,10.03
2018-09-12T07:13:43.022Z,9.70
2018-09-12T07:16:11.994Z,9.60
2018-09-12T07:18:40.741Z,9.67
2018-09-12T07:21:09.663Z,10.20
2018-09-12T07:23:38.438Z,9.23
2018-09-12T07:26:07.767Z,8.17
2018-09-12T07:28:36.590Z,7.77
2018-09-12T07:31:05.853Z,7.10
2018-09-12T07:33:34.634Z,6.53
2018-09-12T07:36:03.388Z,7.53
2018-09-12T07:38:32.174Z,7.30
2018-09-12T07:41:00.989Z,6.50
2018-09-12T07:43:30.254Z,6.83
2018-09-12T07:45:59.007Z,5.90
2018-09-12T07:48:27.884Z,5.67
2018-09-12T07:50:56.692Z,6.10
2018-09-12T07:53:25.578Z,4.73
2018-09-12T07:55:54.382Z,5.83
2018-09-12T07:58:23.334Z,5.03
2018-09-12T08:00:52.102Z,5.13
2018-09-12T08:03:20.923Z,4.87
2018-09-12T08:05:49.747Z,4.10
2018-09-12T08:08:18.515Z,4.60
2018-09-12T08:10:47.663Z,5.00
2018-09-12T08:13:16.438Z,4.97
2018-09-12T08:15:45.271Z,4.50
2018-09-12T08:18:14.121Z,4.60
2018-09-12T08:20:42.957Z,5.63
2018-09-12T08:23:11.736Z,3.30
2018-09-12T08:25:40.521Z,3.70
2018-09-12T08:28:09.400Z,3.90
2018-09-12T08:30:38.492Z,3.47
2018-09-12T08:33:07.379Z,3.30
2018-09-12T08:35:36.312Z,3.70
2018-09-12T08:38:05.132Z,3.70
2018-09-12T08:40:33.947Z,4.40
2018-09-12T08:43:02.708Z,5.10
2018-09-12T08:45:31.544Z,5.33
2018-09-12T08:48:00.333Z,5.83
2018-09-12T08:50:29.102Z,5.77
2018-09-12T08:52:57.935Z,5.67
2018-09-12T08:55:26.696Z,6.53
2018-09-12T08:57:55.725Z,7.30
2018-09-12T09:00:32.609Z,7.93
2018-09-12T09:03:01.422Z,10.00
2018-09-12T09:05:30.370Z,10.77
2018-09-12T09:07:59.160Z,7.27
2018-09-12T09:10:28.030Z,5.73
2018-09-12T09:12:57.658Z,5.27
2018-09-12T09:15:27.912Z,6.70
2018-09-12T09:17:56.963Z,6.83
2018-09-12T09:20:26.287Z,6.50
2018-09-12T09:22:55.095Z,5.10
2018-09-12T09:25:24.767Z,6.63
2018-09-12T09:27:53.557Z,6.57
2018-09-12T09:30:24.262Z,6.43
2018-09-12T09:32:52.984Z,6.67
2018-09-12T09:35:21.825Z,5.53
2018-09-12T09:37:50.598Z,7.50
2018-09-12T09:40:19.392Z,4.87
2018-09-12T09:42:48.284Z,4.00
2018-09-12T09:45:16.996Z,5.00
2018-09-12T09:47:45.788Z,5.47
2018-09-12T09:50:14.560Z,5.30
2018-09-12T09:52:43.381Z,4.20
2018-09-12T09:55:12.264Z,4.30
2018-09-12T09:57:41.028Z,3.90
2018-09-12T10:00:16.332Z,4.40
2018-09-12T10:02:50.202Z,4.00
2018-09-12T10:05:25.986Z,3.70
2018-09-12T10:08:00.051Z,3.43
2018-09-12T10:10:28.816Z,3.00
2018-09-12T10:12:57.580Z,3.77
2018-09-12T10:15:26.390Z,3.70
2018-09-12T10:17:55.271Z,3.70
2018-09-12T10:20:24.099Z,4.23
2018-09-12T10:22:52.859Z,3.37
2018-09-12T10:25:21.678Z,4.60
2018-09-12T10:27:50.485Z,3.37
2018-09-12T10:30:19.299Z,3.13
2018-09-12T10:32:48.069Z,3.83
2018-09-12T10:35:16.816Z,4.07
2018-09-12T10:37:45.644Z,3.13
2018-09-12T10:40:14.388Z,3.67
2018-09-12T10:42:43.197Z,3.83
2018-09-12T10:45:11.945Z,3.50
2018-09-12T10:47:41.750Z,4.20
2018-09-12T10:50:10.557Z,4.07
2018-09-12T10:52:39.298Z,3.60
2018-09-12T10:55:08.220Z,4.30
2018-09-12T10:57:36.960Z,5.00
2018-09-12T11:00:07.472Z,6.37
2018-09-12T11:02:36.433Z,5.23
2018-09-12T11:05:06.435Z,4.83
2018-09-12T11:07:35.279Z,5.70
2018-09-12T11:10:04.094Z,5.70
2018-09-12T11:12:32.922Z,5.30
2018-09-12T11:15:02.786Z,4.77
2018-09-12T11:17:31.560Z,6.20
2018-09-12T11:20:00.334Z,6.87
2018-09-12T11:22:29.120Z,6.70
2018-09-12T11:24:57.908Z,6.43
2018-09-12T11:27:26.716Z,5.27
2018-09-12T11:29:55.816Z,4.47
2018-09-12T11:32:24.594Z,3.70
2018-09-12T11:34:53.316Z,4.27
2018-09-12T11:37:22.108Z,5.90
2018-09-12T11:39:51.362Z,6.10
2018-09-12T11:42:20.127Z,5.40
2018-09-12T11:44:48.920Z,5.10
2018-09-12T11:47:17.681Z,4.33
2018-09-12T11:49:46.417Z,3.87
2018-09-12T11:52:15.207Z,3.90
2018-09-12T11:54:43.935Z,3.57
2018-09-12T11:57:12.752Z,3.47
2018-09-12T11:59:41.692Z,3.10
2018-09-12T12:02:13.487Z,3.30
2018-09-12T12:04:42.261Z,3.40
2018-09-12T12:07:11.037Z,2.87
2018-09-12T12:09:39.898Z,3.10
2018-09-12T12:12:08.644Z,4.17
2018-09-12T12:14:37.486Z,2.90
2018-09-12T12:17:06.281Z,2.90
2018-09-12T12:19:35.138Z,2.50
2018-09-12T12:22:03.920Z,3.47
2018-09-12T12:24:32.807Z,3.20
2018-09-12T12:27:01.617Z,3.40
2018-09-12T12:29:30.399Z,3.10
2018-09-12T12:31:59.147Z,2.43
2018-09-12T12:34:27.927Z,2.70
2018-09-12T12:36:56.731Z,3.50
2018-09-12T12:39:25.581Z,3.27
2018-09-12T12:41:57.304Z,3.20
2018-09-12T12:44:26.096Z,2.87
2018-09-12T12:46:54.857Z,2.23
2018-09-12T12:49:23.616Z,2.30
2018-09-12T12:51:52.407Z,1.90
2018-09-12T12:54:21.169Z,1.90
2018-09-12T12:56:49.914Z,3.00
2018-09-12T12:59:18.797Z,2.10
2018-09-12T13:01:47.565Z,1.97
2018-09-12T13:04:16.314Z,2.10
2018-09-12T13:06:45.090Z,2.20
2018-09-12T13:09:13.868Z,2.40
2018-09-12T13:11:42.729Z,2.60
2018-09-12T13:14:11.513Z,2.87
2018-09-12T13:16:40.236Z,2.50
2018-09-12T13:19:09.077Z,3.20
2018-09-12T13:21:38.015Z,2.50
2018-09-12T13:24:06.718Z,2.20
2018-09-12T13:26:35.516Z,3.03
2018-09-12T13:29:04.445Z,3.30
2018-09-12T13:31:33.248Z,2.47
2018-09-12T13:34:02.003Z,2.97
2018-09-12T13:36:30.840Z,2.70
2018-09-12T13:38:59.687Z,3.13
2018-09-12T13:41:28.472Z,2.70
2018-09-12T13:43:57.260Z,2.30
2018-09-12T13:46:26.025Z,2.63
2018-09-12T13:48:54.806Z,2.90
2018-09-12T13:51:23.568Z,3.13
2018-09-12T13:53:52.368Z,2.40
2018-09-12T13:56:21.611Z,2.50
2018-09-12T13:58:50.401Z,2.93
2018-09-12T14:01:19.261Z,2.13
2018-09-12T14:03:48.018Z,3.23
2018-09-12T14:06:16.865Z,2.90
2018-09-12T14:08:45.687Z,2.70
2018-09-12T14:11:14.512Z,2.23
2018-09-12T14:13:43.336Z,2.33
2018-09-12T14:16:12.069Z,2.40
2018-09-12T14:18:40.848Z,1.97
2018-09-12T14:21:09.797Z,1.93
2018-09-12T14:23:39.568Z,1.93
2018-09-12T14:26:08.650Z,2.40
2018-09-12T14:28:37.537Z,2.33
2018-09-12T14:31:06.348Z,2.00
2018-09-12T14:33:35.100Z,2.17
2018-09-12T14:36:03.885Z,2.60
2018-09-12T14:38:32.690Z,2.47
2018-09-12T14:41:01.501Z,1.87
2018-09-12T14:43:30.307Z,2.30
2018-09-12T14:45:59.099Z,2.33
2018-09-12T14:48:27.902Z,1.90
2018-09-12T14:50:56.682Z,2.40
2018-09-12T14:53:25.567Z,2.27
2018-09-12T14:55:54.325Z,2.93
2018-09-12T14:58:23.347Z,3.30
2018-09-12T15:00:54.118Z,2.70
2018-09-12T15:03:23.596Z,3.27
2018-09-12T15:05:52.410Z,2.97
2018-09-12T15:08:21.215Z,2.97
2018-09-12T15:10:49.976Z,2.97
2018-09-12T15:13:18.903Z,3.20
2018-09-12T15:15:47.705Z,2.80
2018-09-12T15:18:16.538Z,3.00
2018-09-12T15:20:45.319Z,3.20
2018-09-12T15:23:14.164Z,2.77
2018-09-12T15:25:43.014Z,3.30
2018-09-12T15:28:15.107Z,3.00
2018-09-12T15:30:44.031Z,3.03
2018-09-12T15:33:13.990Z,3.17
2018-09-12T15:35:42.820Z,2.97
2018-09-12T15:38:11.581Z,2.80
2018-09-12T15:40:40.377Z,3.17
2018-09-12T15:43:09.156Z,3.00
2018-09-12T15:45:39.022Z,2.77
2018-09-12T15:48:07.861Z,2.40
2018-09-12T15:50:36.604Z,2.00
2018-09-12T15:53:05.615Z,2.37
2018-09-12T15:55:34.389Z,2.60
2018-09-12T15:58:03.187Z,2.13
2018-09-12T16:00:32.038Z,2.10
2018-09-12T16:03:00.816Z,2.20
2018-09-12T16:05:29.658Z,1.97
2018-09-12T16:07:58.861Z,2.00
2018-09-12T16:10:28.896Z,2.70
2018-09-12T16:12:57.938Z,2.57
2018-09-12T16:15:26.856Z,2.80
2018-09-12T16:17:55.788Z,2.30
2018-09-12T16:20:24.681Z,2.47
2018-09-12T16:22:53.595Z,2.50
2018-09-12T16:25:23.958Z,2.10
2018-09-12T16:27:55.024Z,2.63
2018-09-12T16:30:23.984Z,2.33
2018-09-12T16:32:52.899Z,2.43
2018-09-12T16:35:21.761Z,2.47
2018-09-12T16:37:50.603Z,1.83
2018-09-12T16:40:19.525Z,1.90
2018-09-12T16:42:48.330Z,2.13
2018-09-12T16:45:17.101Z,1.70
2018-09-12T16:47:45.948Z,1.17
2018-09-12T16:50:14.812Z,1.60
2018-09-12T16:52:43.612Z,1.70
2018-09-12T16:55:12.445Z,2.00
2018-09-12T16:57:41.253Z,2.23
2018-09-12T17:00:10.063Z,1.93
2018-09-12T17:02:38.830Z,1.20
2018-09-12T17:05:07.715Z,1.33
2018-09-12T17:07:36.607Z,1.00
2018-09-12T17:10:05.573Z,1.30
2018-09-12T17:12:34.446Z,1.50
2018-09-12T17:15:03.704Z,1.80
2018-09-12T17:17:32.522Z,1.40
2018-09-12T17:20:01.343Z,0.90
2018-09-12T17:22:30.147Z,1.10
2018-09-12T17:24:58.929Z,0.80
2018-09-12T17:27:27.793Z,0.90
2018-09-12T17:29:56.591Z,0.70
2018-09-12T17:32:25.409Z,0.83
2018-09-12T17:34:54.259Z,0.73
2018-09-12T17:37:23.030Z,1.00
2018-09-12T17:39:52.031Z,0.90
2018-09-12T17:42:20.904Z,1.20
2018-09-12T17:44:49.693Z,0.83
2018-09-12T17:47:18.968Z,0.90
2018-09-12T17:49:47.759Z,1.80
2018-09-12T17:52:16.754Z,1.00
2018-09-12T17:54:52.848Z,1.33
2018-09-12T17:57:21.645Z,0.97
2018-09-12T17:59:50.505Z,1.83
2018-09-12T18:02:19.288Z,1.10
2018-09-12T18:04:48.051Z,0.80
2018-09-12T18:07:16.848Z,1.17
2018-09-12T18:09:45.632Z,1.07
2018-09-12T18:12:14.432Z,1.00
2018-09-12T18:14:43.194Z,1.00
2018-09-12T18:17:12.061Z,1.10
2018-09-12T18:19:40.908Z,0.90
2018-09-12T18:22:09.716Z,1.23
2018-09-12T18:24:38.482Z,1.23
2018-09-12T18:27:07.479Z,1.40
2018-09-12T18:29:36.402Z,1.07
2018-09-12T18:32:05.209Z,1.10
2018-09-12T18:34:34.034Z,1.00
2018-09-12T18:37:02.861Z,1.13
2018-09-12T18:39:31.880Z,1.03
2018-09-12T18:42:01.465Z,1.20
2018-09-12T18:44:31.102Z,1.10
2018-09-12T18:47:01.009Z,1.30
2018-09-12T18:49:31.438Z,1.30
2018-09-12T18:52:02.069Z,1.00
2018-09-12T18:54:32.470Z,1.30
2018-09-12T18:57:03.026Z,1.00
2018-09-12T18:59:33.679Z,1.40
2018-09-12T19:02:04.188Z,1.50
2018-09-12T19:04:34.818Z,1.73
2018-09-12T19:07:05.725Z,1.50
2018-09-12T19:09:36.427Z,1.53
2018-09-12T19:12:07.125Z,1.13
2018-09-12T19:14:37.862Z,1.40
2018-09-12T19:17:08.492Z,2.20
2018-09-12T19:19:39.864Z,1.17
2018-09-12T19:22:10.578Z,1.10
2018-09-12T19:24:41.316Z,1.27
2018-09-12T19:27:12.043Z,1.53
2018-09-12T19:29:42.677Z,1.60
2018-09-12T19:32:13.307Z,1.50
2018-09-12T19:34:43.838Z,1.57
2018-09-12T19:37:14.164Z,1.20
2018-09-12T19:39:44.899Z,1.37
2018-09-12T19:42:17.678Z,1.80
2018-09-12T19:44:55.657Z,1.77
2018-09-12T19:47:25.056Z,1.93
2018-09-12T19:49:53.932Z,1.53
2018-09-12T19:52:22.896Z,1.40
2018-09-12T19:54:51.779Z,1.20
2018-09-12T19:57:20.553Z,1.47
2018-09-12T19:59:49.366Z,1.40
2018-09-12T20:02:28.392Z,1.63
2018-09-12T20:04:57.856Z,1.47
2018-09-12T20:07:26.881Z,2.10
2018-09-12T20:09:55.696Z,1.57
2018-09-12T20:12:24.507Z,1.20
2018-09-12T20:14:53.631Z,1.77
2018-09-12T20:17:22.449Z,1.77
2018-09-12T20:19:51.569Z,1.90
2018-09-12T20:22:20.743Z,1.93
2018-09-12T20:24:49.520Z,2.03
2018-09-12T20:27:18.465Z,2.20
2018-09-12T20:29:47.637Z,1.83
2018-09-12T20:32:16.725Z,1.90
2018-09-12T20:34:45.572Z,1.37
2018-09-12T20:37:14.914Z,2.00
2018-09-12T20:39:44.806Z,1.70
2018-09-12T20:42:13.612Z,2.27
2018-09-12T20:44:42.361Z,1.63
2018-09-12T20:47:11.322Z,1.90
2018-09-12T20:49:40.160Z,1.73
2018-09-12T20:52:09.401Z,1.63
2018-09-12T20:54:38.351Z,1.90
2018-09-12T20:57:07.191Z,1.53
2018-09-12T20:59:36.093Z,1.90
2018-09-12T21:02:04.924Z,1.70
2018-09-12T21:04:33.690Z,2.00
2018-09-12T21:07:02.802Z,1.30
2018-09-12T21:09:31.641Z,1.83
2018-09-12T21:12:00.464Z,1.80
2018-09-12T21:14:29.216Z,2.13
2018-09-12T21:16:57.974Z,2.17
2018-09-12T21:19:26.776Z,2.20
2018-09-12T21:21:55.573Z,2.00
2018-09-12T21:24:24.388Z,2.13
2018-09-12T21:26:53.213Z,2.23
2018-09-12T21:29:21.997Z,2.60
2018-09-12T21:31:50.801Z,3.33
2018-09-12T21:34:19.580Z,2.50
2018-09-12T21:36:48.430Z,3.60
2018-09-12T21:39:17.196Z,3.40
2018-09-12T21:41:45.989Z,2.37
2018-09-12T21:44:14.768Z,2.60
2018-09-12T21:46:43.647Z,2.40
2018-09-12T21:49:12.388Z,2.83
2018-09-12T21:51:41.169Z,3.87
2018-09-12T21:54:10.028Z,4.00
2018-09-12T21:56:38.817Z,4.50
2018-09-12T21:59:07.667Z,4.47
2018-09-12T22:01:36.400Z,5.00
2018-09-12T22:04:05.153Z,4.07
2018-09-12T22:06:33.929Z,4.47
2018-09-12T22:09:02.725Z,4.43
2018-09-12T22:11:31.479Z,5.27
2018-09-12T22:14:00.264Z,4.73
2018-09-12T22:16:29.091Z,5.37
2018-09-12T22:18:57.964Z,5.20
2018-09-12T22:21:26.757Z,6.00
2018-09-12T22:23:55.609Z,6.50
2018-09-12T22:26:24.537Z,4.87
2018-09-12T22:28:53.421Z,3.50
2018-09-12T22:31:22.263Z,2.80
2018-09-12T22:33:51.169Z,3.23
2018-09-12T22:36:20.081Z,2.83
2018-09-12T22:38:48.974Z,3.10
2018-09-12T22:41:17.809Z,3.33
2018-09-12T22:43:46.594Z,3.30
2018-09-12T22:46:15.560Z,3.77
2018-09-12T22:48:44.369Z,2.80
2018-09-12T22:51:13.149Z,2.53
2018-09-12T22:53:41.969Z,3.40
2018-09-12T22:56:10.728Z,2.57
2018-09-12T22:58:39.574Z,3.63
2018-09-12T23:01:08.382Z,2.50
2018-09-12T23:03:37.178Z,2.10
2018-09-12T23:06:05.960Z,2.80
2018-09-12T23:08:34.914Z,3.30
2018-09-12T23:11:03.799Z,2.70
2018-09-12T23:13:32.731Z,3.20
2018-09-12T23:16:01.570Z,4.70
2018-09-12T23:18:30.384Z,4.40
2018-09-12T23:20:59.204Z,3.77
2018-09-12T23:23:28.020Z,6.30
2018-09-12T23:25:56.973Z,3.30
2018-09-12T23:28:25.829Z,3.73
2018-09-12T23:30:54.653Z,3.77
2018-09-12T23:33:23.428Z,3.57
2018-09-12T23:35:52.264Z,2.97
2018-09-12T23:38:21.079Z,2.80
2018-09-12T23:40:49.876Z,3.37
2018-09-12T23:43:18.650Z,3.20
2018-09-12T23:45:47.542Z,2.97
2018-09-12T23:48:16.384Z,3.00
2018-09-12T23:50:45.406Z,2.50
2018-09-12T23:53:14.200Z,3.90
2018-09-12T23:55:43.018Z,2.90
2018-09-12T23:58:11.818Z,2.20
